Time;durP1;ratioP1;P1;durP2;ratioP2;P2;SDS_P1;SDS_P2;PMS_P1;PMS_P2;Temp;Humidity;BMP_temperature;BMP_pressure;BME280_temperature;BME280_humidity;BME280_pressure;Samples;Min_cycle;Max_cycle;Signal;HPM_P1;HPM_P2
2022/11/03 00:01:08;;;;;;;13.93;2.10;;;11.20;99.90;;;;;;5057930;28;20040;-96
2022/11/03 00:03:34;;;;;;;9.80;1.80;;;11.20;99.90;;;;;;5074282;28;20044;-95
2022/11/03 00:06:03;;;;;;;9.02;1.67;;;11.20;99.90;;;;;;5074741;28;20241;-95
2022/11/03 00:08:30;;;;;;;10.68;1.70;;;11.20;99.90;;;;;;5076490;28;20055;-94
2022/11/03 00:11:05;;;;;;;18.00;2.85;;;11.20;99.90;;;;;;5072188;28;20550;-96
2022/11/03 00:13:31;;;;;;;12.57;2.15;;;11.20;99.90;;;;;;5070095;28;20044;-96
2022/11/03 00:15:56;;;;;;;10.48;1.75;;;11.20;99.90;;;;;;5071906;28;20062;-96
2022/11/03 00:18:22;;;;;;;10.77;2.47;;;11.20;99.90;;;;;;5070928;28;20044;-96
2022/11/03 00:21:02;;;;;;;17.63;2.30;;;11.20;99.90;;;;;;5071940;28;20127;-96
2022/11/03 00:23:31;;;;;;;12.07;2.78;;;11.50;99.90;;;;;;5070985;28;20112;-96
2022/11/03 00:26:09;;;;;;;9.13;2.22;;;11.30;99.90;;;;;;5077418;28;20036;-95
2022/11/03 00:28:36;;;;;;;11.98;1.90;;;11.20;99.90;;;;;;5078505;28;20058;-95
2022/11/03 00:31:07;;;;;;;14.60;2.28;;;11.20;99.90;;;;;;5071383;28;20044;-95
2022/11/03 00:33:34;;;;;;;15.02;2.75;;;11.20;99.90;;;;;;5054301;28;20032;-94
2022/11/03 00:36:00;;;;;;;6.63;1.65;;;11.40;99.90;;;;;;5109126;28;20064;-94
2022/11/03 00:38:27;;;;;;;16.17;2.85;;;11.40;99.90;;;;;;5092697;28;20081;-94
2022/11/03 00:40:57;;;;;;;12.95;3.03;;;11.20;99.90;;;;;;5076403;28;20024;-96
2022/11/03 00:43:24;;;;;;;11.65;1.25;;;11.20;99.90;;;;;;5094023;28;20028;-95
2022/11/03 00:45:50;;;;;;;15.93;2.35;;;11.60;99.90;;;;;;5097555;28;20092;-95
2022/11/03 00:48:28;;;;;;;10.52;1.75;;;12.00;99.90;;;;;;5095830;28;20032;-94
2022/11/03 00:51:14;;;;;;;14.07;1.92;;;11.20;99.90;;;;;;5096561;28;20070;-95
2022/11/03 00:53:46;;;;;;;13.60;2.42;;;11.20;99.90;;;;;;5096320;28;20040;-95
2022/11/03 00:56:24;;;;;;;16.95;1.70;;;11.20;99.90;;;;;;5078476;28;20036;-96
2022/11/03 00:58:50;;;;;;;15.48;1.63;;;11.10;99.90;;;;;;5091339;28;20067;-95
2022/11/03 01:01:21;;;;;;;18.00;2.58;;;11.10;99.90;;;;;;5078799;28;20028;-96
2022/11/03 01:06:52;;;;;;;10.65;2.17;;;11.50;99.90;;;;;;5085280;28;20050;-96
2022/11/03 01:09:27;;;;;;;15.55;2.50;;;11.50;99.90;;;;;;5082124;28;20522;-96
2022/11/03 01:11:58;;;;;;;9.95;1.83;;;11.00;99.90;;;;;;5080820;28;20043;-93
2022/11/03 01:14:26;;;;;;;10.27;1.92;;;11.00;99.90;;;;;;5081624;28;20040;-95
2022/11/03 01:16:52;;;;;;;9.00;1.98;;;11.80;99.90;;;;;;5076183;28;20072;-96
2022/11/03 01:19:18;;;;;;;8.63;2.05;;;11.70;99.90;;;;;;5078470;28;20063;-94
2022/11/03 01:21:45;;;;;;;13.80;1.73;;;10.90;99.90;;;;;;5058185;28;20090;-94
2022/11/03 01:24:10;;;;;;;15.90;2.28;;;10.90;99.90;;;;;;5074218;28;20079;-94
2022/11/03 01:26:36;;;;;;;8.85;1.98;;;10.90;99.90;;;;;;5062251;28;20135;-94
2022/11/03 01:29:02;;;;;;;11.73;2.15;;;10.90;99.90;;;;;;5075093;28;20039;-96
2022/11/03 01:31:28;;;;;;;10.98;2.30;;;10.90;99.90;;;;;;5077271;28;20059;-94
2022/11/03 01:33:55;;;;;;;21.33;3.25;;;11.40;99.90;;;;;;5057715;28;20511;-94
2022/11/03 01:36:21;;;;;;;15.43;2.60;;;10.30;99.90;;;;;;5077337;28;20039;-96
2022/11/03 01:38:47;;;;;;;15.45;2.47;;;11.70;99.90;;;;;;5076480;28;20080;-96
2022/11/03 01:41:21;;;;;;;15.37;3.00;;;11.80;99.90;;;;;;5072491;28;20045;-96
2022/11/03 01:43:50;;;;;;;14.32;1.95;;;10.90;99.90;;;;;;5081647;28;20036;-95
2022/11/03 01:46:26;;;;;;;14.35;2.20;;;10.30;99.90;;;;;;5085290;28;20040;-96
2022/11/03 01:49:09;;;;;;;15.00;2.47;;;10.90;99.90;;;;;;5089573;28;20050;-96
2022/11/03 01:51:36;;;;;;;7.88;1.42;;;10.90;99.90;;;;;;5073161;28;20130;-95
2022/11/03 01:54:08;;;;;;;17.42;2.22;;;10.80;99.90;;;;;;5086701;28;20048;-96
2022/11/03 01:56:40;;;;;;;13.60;1.80;;;11.60;99.90;;;;;;5089552;28;20044;-95
2022/11/03 01:59:06;;;;;;;13.15;2.10;;;10.90;99.90;;;;;;5086673;28;20055;-94
2022/11/03 02:01:32;;;;;;;13.52;2.10;;;10.80;99.90;;;;;;5082296;28;20044;-94
2022/11/03 02:04:06;;;;;;;8.15;1.60;;;11.60;99.90;;;;;;5075102;28;20040;-95
2022/11/03 02:06:32;;;;;;;12.90;2.22;;;10.90;99.90;;;;;;5084270;28;20036;-94
2022/11/03 02:09:05;;;;;;;18.08;2.20;;;11.30;99.90;;;;;;5049127;28;20059;-95
2022/11/03 02:14:17;;;;;;;17.20;2.38;;;10.80;99.90;;;;;;5055990;28;20593;-95
2022/11/03 02:16:49;;;;;;;16.42;3.45;;;11.90;99.90;;;;;;5055729;28;20075;-95
2022/11/03 02:19:43;;;;;;;10.07;1.95;;;10.80;99.90;;;;;;5073729;28;20056;-94
2022/11/03 02:22:42;;;;;;;12.65;2.42;;;10.80;99.90;;;;;;5057630;28;20092;-92
2022/11/03 02:25:17;;;;;;;12.35;2.22;;;10.80;99.90;;;;;;5039613;28;20071;-96
2022/11/03 02:27:43;;;;;;;10.95;1.77;;;10.70;99.90;;;;;;5057321;28;20058;-94
2022/11/03 02:30:09;;;;;;;18.77;2.95;;;11.50;99.90;;;;;;5078315;28;20052;-93
2022/11/03 02:32:50;;;;;;;12.57;1.92;;;10.80;99.90;;;;;;5060617;28;20036;-93
2022/11/03 02:35:30;;;;;;;18.80;2.33;;;10.80;99.90;;;;;;5052018;28;20052;-92
2022/11/03 02:38:00;;;;;;;10.07;2.05;;;10.80;99.90;;;;;;5052790;28;20094;-94
2022/11/03 02:40:38;;;;;;;12.05;1.92;;;10.80;99.90;;;;;;5051773;28;20525;-93
2022/11/03 02:43:05;;;;;;;7.72;1.60;;;10.80;99.90;;;;;;5050435;28;20049;-94
2022/11/03 02:45:31;;;;;;;10.70;1.52;;;10.90;99.90;;;;;;5051463;28;20488;-95
2022/11/03 02:48:00;;;;;;;15.05;2.97;;;10.80;99.90;;;;;;5051144;28;20106;-96
2022/11/03 02:50:33;;;;;;;13.02;2.08;;;10.80;99.90;;;;;;5034418;28;20044;-93
2022/11/03 02:52:59;;;;;;;14.98;2.63;;;10.80;99.90;;;;;;5072242;28;20056;-95
2022/11/03 02:55:31;;;;;;;13.82;1.88;;;11.30;99.90;;;;;;5056950;28;20476;-95
2022/11/03 02:58:11;;;;;;;7.47;1.27;;;10.80;99.90;;;;;;5057984;28;20048;-94
2022/11/03 03:00:44;;;;;;;13.00;2.60;;;10.70;99.90;;;;;;5061224;28;20530;-96
2022/11/03 03:03:16;;;;;;;11.55;1.35;;;11.10;99.90;;;;;;5053131;28;20108;-96
2022/11/03 03:05:44;;;;;;;17.70;2.37;;;10.80;99.90;;;;;;5073480;28;20176;-95
2022/11/03 03:08:11;;;;;;;9.35;1.85;;;10.80;99.90;;;;;;5073385;28;20032;-95
2022/11/03 03:10:44;;;;;;;11.38;1.70;;;11.30;99.90;;;;;;5076222;28;20036;-96
2022/11/03 03:13:15;;;;;;;12.20;2.38;;;10.80;99.90;;;;;;5104119;28;20105;-96
2022/11/03 03:15:51;;;;;;;16.42;3.88;;;11.80;99.90;;;;;;5074067;28;20067;-96
2022/11/03 03:18:26;;;;;;;16.65;2.47;;;10.90;99.90;;;;;;5075616;28;20040;-96
2022/11/03 03:21:02;;;;;;;10.90;2.42;;;10.90;99.90;;;;;;5081390;28;20131;-95
2022/11/03 03:23:46;;;;;;;15.25;2.20;;;10.90;99.90;;;;;;5078575;28;20103;-95
2022/11/03 03:26:24;;;;;;;12.32;1.88;;;10.90;99.90;;;;;;5080308;28;20086;-95
2022/11/03 03:28:58;;;;;;;8.93;2.45;;;11.00;99.90;;;;;;5074216;28;20028;-96
2022/11/03 03:31:27;;;;;;;13.02;1.98;;;11.30;99.90;;;;;;5077413;28;20491;-94
2022/11/03 03:33:55;;;;;;;21.08;2.22;;;11.00;99.90;;;;;;5076272;28;20123;-96
2022/11/03 03:36:25;;;;;;;12.43;2.13;;;11.00;99.90;;;;;;5075707;28;20065;-96
2022/11/03 03:38:55;;;;;;;8.88;1.67;;;12.20;99.90;;;;;;5074167;28;20085;-96
2022/11/03 03:41:23;;;;;;;15.10;2.13;;;11.10;99.90;;;;;;5058338;28;20055;-95
2022/11/03 03:43:57;;;;;;;11.43;2.55;;;11.20;99.90;;;;;;5076940;28;20036;-96
2022/11/03 03:46:26;;;;;;;16.15;2.95;;;11.10;99.90;;;;;;5095466;28;20044;-96
2022/11/03 03:48:52;;;;;;;9.82;1.77;;;12.00;99.90;;;;;;5075729;28;20051;-96
2022/11/03 03:51:21;;;;;;;9.27;1.60;;;11.00;99.90;;;;;;5072204;28;20040;-95
2022/11/03 03:53:54;;;;;;;17.67;2.42;;;10.90;99.90;;;;;;5073730;28;20055;-94
2022/11/03 03:56:31;;;;;;;12.65;1.88;;;12.10;99.90;;;;;;5074841;28;20047;-96
2022/11/03 03:58:57;;;;;;;9.43;1.73;;;11.80;99.90;;;;;;5072515;28;20051;-96
2022/11/03 04:01:23;;;;;;;8.23;1.45;;;11.10;99.90;;;;;;5071104;28;20036;-95
2022/11/03 04:03:49;;;;;;;8.02;1.52;;;11.10;99.90;;;;;;5070823;28;20093;-94
2022/11/03 04:06:14;;;;;;;15.77;2.50;;;11.10;99.90;;;;;;5074648;28;20040;-96
2022/11/03 04:08:40;;;;;;;15.90;2.60;;;11.70;99.90;;;;;;5072354;28;20040;-95
2022/11/03 04:22:20;;;;;;;11.25;1.63;;;11.10;99.90;;;;;;5049754;28;20059;-96
2022/11/03 04:24:49;;;;;;;;;;;11.10;99.90;;;;;;5061381;28;20040;-96
2022/11/03 04:27:20;;;;;;;14.23;2.83;;;11.10;99.90;;;;;;5042480;28;19925;-94
2022/11/03 04:29:54;;;;;;;10.15;2.05;;;11.60;99.90;;;;;;5059080;28;20106;-96
2022/11/03 04:32:20;;;;;;;9.60;1.70;;;11.80;99.90;;;;;;5071825;28;20340;-96
2022/11/03 04:34:53;;;;;;;12.57;2.58;;;11.00;99.90;;;;;;5058807;28;20325;-96
2022/11/03 04:37:18;;;;;;;16.15;1.92;;;11.10;99.90;;;;;;5058596;28;20044;-96
2022/11/03 04:39:44;;;;;;;11.02;2.28;;;11.50;99.90;;;;;;5060690;28;20093;-95
2022/11/03 04:42:17;;;;;;;12.77;2.17;;;11.00;99.90;;;;;;5060855;28;20281;-96
2022/11/03 04:44:43;;;;;;;16.38;2.35;;;11.00;99.90;;;;;;5057850;28;20051;-95
2022/11/03 04:47:12;;;;;;;7.10;1.52;;;12.00;99.90;;;;;;5042223;28;20139;-95
2022/11/03 04:49:38;;;;;;;18.13;3.13;;;11.00;99.90;;;;;;5042613;28;20055;-96
2022/11/03 04:52:18;;;;;;;11.32;2.10;;;11.00;99.90;;;;;;5059546;28;20041;-93
2022/11/03 04:54:46;;;;;;;9.77;1.75;;;11.10;99.90;;;;;;5057240;28;20045;-95
2022/11/03 04:57:17;;;;;;;11.75;1.92;;;11.20;99.90;;;;;;5042527;28;20040;-96
2022/11/03 04:59:45;;;;;;;12.00;1.95;;;11.10;99.90;;;;;;5041592;28;20483;-96
2022/11/03 05:02:14;;;;;;;16.50;1.83;;;11.10;99.90;;;;;;5057153;28;20550;-94
2022/11/03 05:04:41;;;;;;;9.02;1.92;;;11.10;99.90;;;;;;5057697;28;20411;-95
2022/11/03 05:07:31;;;;;;;15.48;2.28;;;11.10;99.90;;;;;;5058699;28;20535;-95
2022/11/03 05:09:58;;;;;;;12.15;2.03;;;11.10;99.90;;;;;;5058290;28;20092;-95
2022/11/03 05:12:25;;;;;;;10.85;1.58;;;11.10;99.90;;;;;;5043651;28;20048;-96
2022/11/03 05:14:51;;;;;;;15.10;3.95;;;11.10;99.90;;;;;;5045624;28;20040;-95
2022/11/03 05:17:21;;;;;;;10.63;2.20;;;11.60;99.90;;;;;;5037136;28;20045;-95
2022/11/03 05:19:49;;;;;;;16.33;1.73;;;11.10;99.90;;;;;;5057277;28;20111;-96
2022/11/03 05:22:18;;;;;;;25.98;3.33;;;11.10;99.90;;;;;;5055742;28;20385;-96
2022/11/03 05:24:43;;;;;;;20.15;2.60;;;11.80;99.90;;;;;;5054442;28;20145;-94
2022/11/03 05:27:18;;;;;;;26.13;2.70;;;11.00;99.90;;;;;;5037840;28;20176;-96
2022/11/03 05:29:45;;;;;;;15.68;3.78;;;11.40;99.90;;;;;;5057157;28;20730;-94
2022/11/03 05:32:23;;;;;;;7.15;1.75;;;11.10;99.90;;;;;;5057100;28;20052;-95
2022/11/03 05:34:51;;;;;;;10.63;1.63;;;10.90;99.90;;;;;;5058376;28;20098;-95
2022/11/03 05:37:26;;;;;;;12.38;1.80;;;11.00;99.90;;;;;;5056772;28;20123;-96
2022/11/03 05:39:57;;;;;;;12.93;1.85;;;11.70;99.90;;;;;;5055075;28;20045;-94
2022/11/03 05:42:40;;;;;;;15.23;2.40;;;10.90;99.90;;;;;;5054091;28;20041;-93
2022/11/03 05:45:22;;;;;;;15.43;1.83;;;10.90;99.90;;;;;;5052052;28;20051;-94
2022/11/03 05:47:52;;;;;;;15.13;2.25;;;10.90;99.90;;;;;;5053820;28;20492;-96
2022/11/03 05:50:23;;;;;;;16.65;2.58;;;10.90;99.90;;;;;;5050243;28;20094;-89
2022/11/03 05:53:14;;;;;;;12.90;2.03;;;10.80;99.90;;;;;;5050357;28;20708;-92
2022/11/03 05:55:42;;;;;;;10.23;2.28;;;10.80;99.90;;;;;;5039796;28;20424;-90
2022/11/03 05:58:20;;;;;;;12.13;2.55;;;11.20;99.90;;;;;;5049633;28;20051;-92
2022/11/03 06:00:45;;;;;;;12.52;2.33;;;10.80;99.90;;;;;;5050706;28;20052;-94
2022/11/03 06:03:24;;;;;;;13.95;1.80;;;10.80;99.90;;;;;;5034151;28;20040;-94
2022/11/03 06:05:51;;;;;;;9.07;1.60;;;10.80;99.90;;;;;;5050349;28;20056;-91
2022/11/03 06:08:23;;;;;;;11.00;1.95;;;10.70;99.90;;;;;;5033065;28;20084;-95
2022/11/03 06:10:56;;;;;;;15.40;2.75;;;10.70;99.90;;;;;;5086625;28;20048;-95
2022/11/03 06:13:30;;;;;;;14.38;1.95;;;10.70;99.90;;;;;;5058565;28;20097;-96
2022/11/03 06:16:09;;;;;;;10.35;1.77;;;10.70;99.90;;;;;;5073618;28;20040;-95
2022/11/03 06:18:37;;;;;;;11.82;2.28;;;10.70;99.90;;;;;;5069705;28;20196;-93
2022/11/03 06:21:15;;;;;;;8.73;2.00;;;11.00;99.90;;;;;;5053987;28;20040;-94
2022/11/03 06:23:41;;;;;;;9.80;1.58;;;11.70;99.90;;;;;;5053275;28;20210;-93
2022/11/03 06:26:27;;;;;;;7.80;2.03;;;10.70;99.90;;;;;;5053777;28;20044;-94
2022/11/03 06:28:54;;;;;;;17.48;2.75;;;11.00;99.90;;;;;;5052755;28;20047;-93
2022/11/03 06:31:26;;;;;;;13.73;2.85;;;11.20;99.90;;;;;;5055995;28;20347;-93
2022/11/03 06:33:56;;;;;;;11.93;1.60;;;10.70;99.90;;;;;;5071609;28;20070;-96
2022/11/03 06:36:25;;;;;;;12.20;1.67;;;11.30;99.90;;;;;;5052733;28;20538;-94
2022/11/03 06:38:59;;;;;;;11.13;1.52;;;10.70;99.90;;;;;;5069349;28;20048;-94
2022/11/03 06:41:28;;;;;;;17.15;2.20;;;10.80;99.90;;;;;;5052568;28;20047;-93
2022/11/03 06:43:54;;;;;;;17.35;2.00;;;11.80;99.90;;;;;;5068563;28;20043;-90
2022/11/03 06:46:23;;;;;;;13.15;2.42;;;10.80;99.90;;;;;;5069202;28;20050;-93
2022/11/03 06:48:50;;;;;;;15.73;2.92;;;10.90;99.90;;;;;;5052842;28;20076;-90
2022/11/03 06:51:20;;;;;;;11.65;2.55;;;10.80;99.90;;;;;;5053105;28;20044;-94
2022/11/03 06:53:47;;;;;;;11.55;1.88;;;10.80;99.90;;;;;;5071552;28;20083;-93
2022/11/03 06:56:20;;;;;;;10.35;1.83;;;10.50;99.90;;;;;;5071005;28;20570;-95
2022/11/03 06:58:49;;;;;;;;;;;11.20;99.90;;;;;;5072649;28;20044;-96
2022/11/03 07:01:20;;;;;;;9.75;2.17;;;11.30;99.90;;;;;;5074056;28;19920;-94
2022/11/03 07:03:45;;;;;;;14.60;2.85;;;10.90;99.90;;;;;;5074856;28;20051;-90
2022/11/03 07:06:23;;;;;;;17.88;2.78;;;10.90;99.90;;;;;;5091123;28;20055;-93
2022/11/03 07:09:06;;;;;;;16.77;3.42;;;11.00;99.90;;;;;;5090351;28;20099;-94
2022/11/03 07:11:36;;;;;;;14.25;2.63;;;11.00;99.90;;;;;;5079265;28;20055;-94
2022/11/03 07:14:25;;;;;;;11.25;2.38;;;11.10;99.90;;;;;;5053445;28;20177;-92
2022/11/03 07:17:19;;;;;;;24.00;2.22;;;11.00;99.90;;;;;;5071537;28;20133;-93
2022/11/03 07:19:45;;;;;;;13.95;2.42;;;11.10;99.90;;;;;;5063960;28;20106;-93
2022/11/03 07:22:20;;;;;;;14.18;2.65;;;11.10;99.90;;;;;;5069994;28;20044;-94
2022/11/03 07:24:48;;;;;;;6.72;1.77;;;11.10;99.90;;;;;;5069742;28;20040;-94
2022/11/03 07:27:28;;;;;;;9.10;2.05;;;11.60;99.90;;;;;;5069019;28;20066;-92
2022/11/03 07:30:16;;;;;;;18.40;2.90;;;11.20;99.90;;;;;;5052174;28;20050;-93
2022/11/03 07:32:41;;;;;;;14.23;2.10;;;11.20;99.90;;;;;;5068116;28;20066;-94
2022/11/03 07:35:16;;;;;;;13.02;2.55;;;12.30;99.90;;;;;;5035403;28;20483;-94
2022/11/03 07:37:43;;;;;;;12.23;1.85;;;11.50;99.90;;;;;;5068206;28;20036;-93
2022/11/03 07:40:17;;;;;;;10.43;2.30;;;11.30;99.90;;;;;;5068674;28;20106;-95
2022/11/03 07:42:43;;;;;;;12.13;2.63;;;11.80;99.90;;;;;;5069587;28;20044;-94
2022/11/03 07:45:33;;;;;;;18.60;2.15;;;11.40;99.90;;;;;;5068518;28;20040;-93
2022/11/03 07:48:10;;;;;;;12.18;2.83;;;11.40;99.90;;;;;;5068599;28;20046;-94
2022/11/03 07:50:37;;;;;;;16.77;2.78;;;11.40;99.90;;;;;;5051827;28;20048;-94
2022/11/03 07:53:18;;;;;;;18.33;2.45;;;11.00;99.90;;;;;;5054428;28;20098;-94
2022/11/03 07:55:45;;;;;;;14.27;2.75;;;11.50;99.90;;;;;;5073406;28;20046;-93
2022/11/03 07:58:21;;;;;;;10.63;2.20;;;11.60;99.90;;;;;;5057808;28;20048;-94
2022/11/03 08:00:47;;;;;;;12.25;2.20;;;11.60;99.90;;;;;;5056739;28;20365;-95
2022/11/03 08:03:25;;;;;;;9.30;2.40;;;11.70;99.90;;;;;;5056014;28;20043;-94
2022/11/03 08:05:51;;;;;;;13.13;2.10;;;11.70;99.90;;;;;;5055867;28;20133;-94
2022/11/03 08:08:20;;;;;;;14.40;2.40;;;11.70;99.90;;;;;;5090486;28;20047;-93
2022/11/03 08:10:45;;;;;;;12.73;2.38;;;11.80;99.90;;;;;;5038597;28;20052;-94
2022/11/03 08:13:11;;;;;;;8.73;2.05;;;11.80;99.90;;;;;;5056076;28;20075;-93
2022/11/03 08:15:37;;;;;;;9.45;1.73;;;11.80;99.90;;;;;;5071972;28;20098;-90
2022/11/03 08:18:03;;;;;;;15.27;2.10;;;11.90;99.90;;;;;;5055456;28;20047;-94
2022/11/03 08:20:28;;;;;;;11.90;1.98;;;11.90;99.90;;;;;;5055644;28;20348;-95
2022/11/03 08:22:54;;;;;;;20.95;3.42;;;13.00;99.90;;;;;;5072549;28;20044;-92
2022/11/03 08:25:19;;;;;;;12.27;2.42;;;12.80;99.90;;;;;;5072263;28;20040;-92
2022/11/03 08:27:45;;;;;;;10.63;2.08;;;12.00;99.90;;;;;;5072060;28;20864;-94
2022/11/03 08:30:11;;;;;;;10.32;1.55;;;12.10;99.90;;;;;;5072633;28;20044;-84
2022/11/03 08:32:37;;;;;;;9.32;2.13;;;12.20;99.90;;;;;;5071588;28;20040;-94
2022/11/03 08:35:03;;;;;;;16.58;2.42;;;12.20;99.90;;;;;;5072735;28;20048;-96
2022/11/03 08:37:29;;;;;;;14.73;2.72;;;12.30;99.90;;;;;;5039115;28;20043;-93
2022/11/03 08:39:54;;;;;;;21.85;2.72;;;12.40;99.90;;;;;;5056088;28;20040;-92
2022/11/03 08:42:20;;;;;;;13.80;2.30;;;12.50;99.90;;;;;;5072156;28;20059;-94
2022/11/03 08:44:46;;;;;;;10.55;2.72;;;12.60;99.90;;;;;;5056134;28;20051;-93
2022/11/03 08:47:11;;;;;;;12.63;2.80;;;12.70;99.90;;;;;;5059695;28;20040;-93
2022/11/03 08:49:37;;;;;;;17.25;2.47;;;12.80;99.90;;;;;;5079206;28;20028;-93
2022/11/03 08:52:03;;;;;;;13.48;2.78;;;12.90;99.90;;;;;;5062558;28;20060;-92
2022/11/03 08:54:28;;;;;;;10.63;1.65;;;13.00;99.90;;;;;;5078363;28;20104;-88
2022/11/03 08:56:54;;;;;;;10.10;2.17;;;13.10;99.90;;;;;;5079339;28;20035;-93
2022/11/03 08:59:20;;;;;;;15.73;2.45;;;13.10;99.90;;;;;;5076828;28;20032;-90
2022/11/03 09:01:46;;;;;;;18.80;2.55;;;13.20;99.90;;;;;;5095688;28;20142;-94
2022/11/03 09:04:11;;;;;;;18.50;2.83;;;14.10;99.90;;;;;;5077779;28;20036;-92
2022/11/03 09:06:37;;;;;;;7.53;2.33;;;13.30;99.90;;;;;;5077911;28;20024;-92
2022/11/03 09:09:03;;;;;;;14.18;1.85;;;13.30;99.90;;;;;;5073497;28;20067;-93
2022/11/03 09:11:28;;;;;;;7.13;1.88;;;13.30;99.90;;;;;;5085085;28;20051;-90
2022/11/03 09:13:56;;;;;;;18.75;2.17;;;13.20;99.90;;;;;;5057370;28;20620;-92
2022/11/03 09:16:22;;;;;;;9.73;2.67;;;13.20;99.90;;;;;;5054376;28;20098;-93
2022/11/03 09:18:47;;;;;;;6.90;2.20;;;13.20;99.90;;;;;;5054715;28;20044;-91
2022/11/03 09:21:13;;;;;;;14.60;1.98;;;13.90;99.90;;;;;;5072525;28;20086;-92
2022/11/03 09:23:39;;;;;;;13.82;1.80;;;13.20;99.90;;;;;;5071843;28;20488;-92
2022/11/03 09:26:05;;;;;;;12.80;2.85;;;13.20;99.90;;;;;;5071037;28;20048;-91
2022/11/03 09:28:31;;;;;;;14.05;2.85;;;13.30;99.90;;;;;;5070336;28;20087;-91
2022/11/03 09:30:57;;;;;;;9.85;2.35;;;13.30;99.90;;;;;;5070808;28;20185;-89
2022/11/03 09:33:23;;;;;;;12.15;2.33;;;13.30;99.90;;;;;;5069794;28;20214;-91
2022/11/03 09:35:48;;;;;;;11.55;2.15;;;13.30;99.90;;;;;;5070511;28;20044;-92
2022/11/03 09:38:14;;;;;;;13.13;2.55;;;13.40;99.90;;;;;;5036813;28;20427;-92
2022/11/03 09:40:40;;;;;;;13.73;2.80;;;13.40;99.90;;;;;;5036908;28;20051;-91
2022/11/03 09:43:06;;;;;;;13.07;2.38;;;13.50;99.90;;;;;;5053473;28;20182;-89
2022/11/03 09:45:32;;;;;;;36.40;5.88;;;14.10;99.90;;;;;;5080470;28;20036;-94
2022/11/03 09:47:57;;;;;;;17.73;2.17;;;12.80;99.90;;;;;;5078701;28;20098;-90
2022/11/03 09:50:23;;;;;;;12.90;2.10;;;13.60;99.90;;;;;;5075644;28;20442;-91
2022/11/03 09:52:54;;;;;;;19.33;3.83;;;13.70;99.90;;;;;;5070475;28;20050;-91
2022/11/03 09:55:25;;;;;;;20.98;2.00;;;13.70;99.90;;;;;;5056221;28;20044;-95
2022/11/03 09:58:08;;;;;;;22.73;4.07;;;13.70;99.90;;;;;;5073931;28;20054;-91
2022/11/03 10:00:34;;;;;;;13.43;2.58;;;13.80;99.90;;;;;;5070700;28;20394;-92
2022/11/03 10:03:02;;;;;;;16.13;2.50;;;13.80;99.90;;;;;;5036105;28;20559;-92
2022/11/03 10:05:33;;;;;;;11.70;2.47;;;14.00;99.90;;;;;;5054424;28;20040;-91
2022/11/03 10:08:03;;;;;;;9.25;1.70;;;14.00;99.90;;;;;;5068985;28;20051;-91
2022/11/03 10:10:30;;;;;;;21.42;2.72;;;14.10;99.90;;;;;;5068617;28;20062;-89
2022/11/03 10:12:55;;;;;;;14.25;2.60;;;14.20;99.90;;;;;;5069712;28;20423;-89
2022/11/03 10:15:23;;;;;;;15.15;2.47;;;15.10;99.90;;;;;;5068615;28;20040;-93
2022/11/03 10:17:50;;;;;;;13.88;2.30;;;14.30;99.90;;;;;;5069628;28;20044;-92
2022/11/03 10:20:19;;;;;;;13.30;2.45;;;14.40;99.90;;;;;;5069432;28;20109;-91
2022/11/03 10:22:46;;;;;;;12.55;2.55;;;14.50;99.90;;;;;;5069114;28;20491;-90
2022/11/03 10:25:28;;;;;;;8.20;2.35;;;14.60;99.90;;;;;;5068969;28;20044;-91
2022/11/03 10:28:21;;;;;;;12.25;2.72;;;14.60;99.90;;;;;;5069234;28;20044;-90
2022/11/03 10:31:05;;;;;;;7.15;1.60;;;14.60;99.90;;;;;;5070114;28;20044;-92
2022/11/03 10:33:50;;;;;;;14.93;2.70;;;14.70;99.90;;;;;;5069135;28;20084;-91
2022/11/03 10:36:16;;;;;;;7.28;2.00;;;14.70;99.90;;;;;;5069193;28;20048;-89
2022/11/03 10:38:43;;;;;;;9.75;1.77;;;14.70;99.90;;;;;;5069992;28;20044;-90
2022/11/03 10:41:11;;;;;;;10.60;1.75;;;14.70;99.90;;;;;;5069289;28;20048;-91
2022/11/03 10:43:39;;;;;;;11.25;1.77;;;14.70;99.90;;;;;;5069108;28;20040;-91
2022/11/03 10:46:31;;;;;;;19.08;2.30;;;14.80;99.90;;;;;;5052314;28;20432;-89
2022/11/03 10:49:11;;;;;;;15.37;2.47;;;14.80;99.90;;;;;;5065207;28;20572;-91
2022/11/03 10:51:37;;;;;;;13.35;2.75;;;14.80;99.90;;;;;;5068365;28;20052;-90
2022/11/03 10:54:04;;;;;;;14.43;2.03;;;14.80;99.90;;;;;;5068048;28;20054;-90
2022/11/03 10:56:31;;;;;;;13.50;2.13;;;14.80;99.90;;;;;;5052688;28;20555;-90
2022/11/03 10:59:00;;;;;;;10.48;1.83;;;15.30;99.90;;;;;;5070136;28;20395;-94
2022/11/03 11:01:26;;;;;;;11.10;2.22;;;15.10;99.90;;;;;;5071618;28;20052;-93
2022/11/03 11:03:52;;;;;;;10.63;1.92;;;15.20;99.90;;;;;;5072596;28;20044;-95
2022/11/03 11:06:20;;;;;;;12.05;2.13;;;15.30;99.90;;;;;;5055114;28;20036;-94
2022/11/03 11:08:47;;;;;;;13.73;1.90;;;15.30;99.90;;;;;;5079660;28;20052;-94
2022/11/03 11:11:18;;;;;;;11.73;2.38;;;15.30;99.90;;;;;;5074633;28;20048;-94
2022/11/03 11:13:43;;;;;;;12.23;2.92;;;15.40;99.90;;;;;;5068980;28;20094;-96
2022/11/03 11:16:46;;;;;;;12.38;1.98;;;15.40;99.90;;;;;;5084053;28;20040;-96
2022/11/03 11:19:12;;;;;;;10.63;1.83;;;15.40;99.90;;;;;;5070265;28;20039;-94
2022/11/03 11:21:38;;;;;;;8.98;1.65;;;16.00;99.90;;;;;;5054144;28;20039;-94
2022/11/03 11:24:08;;;;;;;16.90;2.45;;;15.70;99.90;;;;;;5073053;28;20036;-94
2022/11/03 11:26:34;;;;;;;8.60;1.77;;;15.90;99.90;;;;;;5072922;28;20048;-95
2022/11/03 11:29:09;;;;;;;12.50;1.80;;;15.90;99.90;;;;;;5072068;28;20036;-93
2022/11/03 11:31:44;;;;;;;14.05;2.45;;;16.00;99.90;;;;;;5073290;28;20048;-94
2022/11/03 11:34:17;;;;;;;15.13;1.95;;;16.00;99.90;;;;;;5069712;28;20890;-93
2022/11/03 11:36:52;;;;;;;9.70;1.98;;;16.00;99.90;;;;;;5068341;28;20047;-93
2022/11/03 11:39:27;;;;;;;10.68;2.65;;;16.10;99.90;;;;;;5069326;28;20040;-92
2022/11/03 11:42:17;;;;;;;15.70;1.98;;;16.10;99.90;;;;;;5085208;28;20067;-93
2022/11/03 11:44:44;;;;;;;10.27;2.38;;;16.20;99.90;;;;;;5068899;28;20579;-93
2022/11/03 11:47:27;;;;;;;9.98;1.48;;;16.30;99.90;;;;;;5069855;28;20059;-92
2022/11/03 11:50:05;;;;;;;;;;;16.20;99.90;;;;;;5072118;28;20127;-93
2022/11/03 11:52:44;;;;;;;13.02;3.30;;;16.20;99.90;;;;;;5072010;28;20520;-94
2022/11/03 11:55:19;;;;;;;7.97;1.45;;;16.10;99.90;;;;;;5069479;28;20677;-93
2022/11/03 11:57:46;;;;;;;4.38;1.05;;;16.00;99.90;;;;;;5068665;28;20086;-93
2022/11/03 12:00:21;;;;;;;6.35;1.38;;;16.00;99.90;;;;;;5051944;28;20407;-93
2022/11/03 12:02:47;;;;;;;11.35;1.80;;;16.00;99.90;;;;;;5051930;28;20055;-91
2022/11/03 12:05:26;;;;;;;12.00;1.85;;;15.90;99.90;;;;;;5068047;28;20051;-93
2022/11/03 12:07:53;;;;;;;8.93;1.88;;;16.00;99.90;;;;;;5051602;28;20427;-93
2022/11/03 12:10:30;;;;;;;10.52;1.52;;;16.00;99.90;;;;;;5067635;28;20052;-92
2022/11/03 12:12:58;;;;;;;6.90;1.63;;;16.00;99.90;;;;;;5051041;28;20071;-94
2022/11/03 12:15:56;;;;;;;13.57;2.45;;;16.00;99.90;;;;;;5068151;28;20051;-93
2022/11/03 12:18:35;;;;;;;7.80;1.40;;;16.00;99.90;;;;;;5068171;28;20040;-92
2022/11/03 12:21:14;;;;;;;9.95;2.33;;;16.00;99.90;;;;;;5067490;28;20048;-93
2022/11/03 12:23:42;;;;;;;7.65;1.63;;;16.00;99.90;;;;;;5051102;28;20042;-93
2022/11/03 12:26:26;;;;;;;13.30;1.75;;;16.00;99.90;;;;;;5068393;28;20106;-94
2022/11/03 12:28:52;;;;;;;11.07;1.55;;;16.00;99.90;;;;;;5067678;28;20044;-93
2022/11/03 12:31:18;;;;;;;8.55;1.40;;;16.00;99.90;;;;;;5051054;28;20043;-93
2022/11/03 12:33:44;;;;;;;5.55;0.95;;;15.90;99.90;;;;;;5068154;28;20062;-94
2022/11/03 12:36:09;;;;;;;9.57;2.58;;;15.90;99.90;;;;;;5051372;28;20040;-93
2022/11/03 12:38:35;;;;;;;11.40;2.80;;;15.90;99.90;;;;;;5052816;28;20048;-91
2022/11/03 12:41:43;;;;;;;8.55;1.25;;;15.90;99.90;;;;;;5072247;28;20028;-91
2022/11/03 12:43:51;;;;;;;8.32;1.70;;;15.80;99.90;;;;;;5063991;28;20036;-92
2022/11/03 12:46:19;;;;;;;7.13;1.15;;;15.80;99.90;;;;;;5071677;28;20245;-94
2022/11/03 12:48:46;;;;;;;9.60;1.13;;;15.80;99.90;;;;;;5055429;28;20040;-96
2022/11/03 12:51:23;;;;;;;8.82;1.20;;;15.70;99.90;;;;;;5055186;28;20036;-95
2022/11/03 12:53:49;;;;;;;12.27;1.67;;;15.70;99.90;;;;;;5071307;28;20044;-94
2022/11/03 12:56:16;;;;;;;8.48;1.40;;;15.70;99.90;;;;;;5054094;28;20087;-93
2022/11/03 12:58:42;;;;;;;6.95;1.60;;;15.70;99.90;;;;;;5054360;28;20101;-92
2022/11/03 13:01:08;;;;;;;10.60;1.42;;;15.70;99.90;;;;;;5038148;28;20071;-95
2022/11/03 13:03:34;;;;;;;9.25;1.33;;;15.70;99.90;;;;;;5054701;28;20097;-92
2022/11/03 13:06:03;;;;;;;5.07;1.05;;;15.70;99.90;;;;;;5070818;28;20586;-91
2022/11/03 13:08:32;;;;;;;7.80;2.20;;;15.80;99.90;;;;;;5070678;28;20044;-93
2022/11/03 13:10:58;;;;;;;9.68;1.80;;;15.70;99.90;;;;;;5051170;28;20064;-93
2022/11/03 13:13:25;;;;;;;9.65;1.80;;;15.80;99.90;;;;;;5050779;28;20118;-93
2022/11/03 13:15:52;;;;;;;5.30;1.83;;;15.80;99.90;;;;;;5067252;28;20044;-92